sensor_id;sensor_type;location;lat;lon;timestamp;P1;durP1;ratioP1;P2;durP2;ratioP2
76589;SDS011;65471;55.908;37.880;2023-04-06T00:00:53;29.17;;;11.98;;
76589;SDS011;65471;55.908;37.880;2023-04-06T00:03:20;24.20;;;12.80;;
76589;SDS011;65471;55.908;37.880;2023-04-06T00:05:47;25.63;;;12.15;;
76589;SDS011;65471;55.908;37.880;2023-04-06T00:08:15;30.70;;;13.20;;
76589;SDS011;65471;55.908;37.880;2023-04-06T00:10:42;27.90;;;12.48;;
76589;SDS011;65471;55.908;37.880;2023-04-06T00:13:09;18.92;;;11.88;;
76589;SDS011;65471;55.908;37.880;2023-04-06T00:15:36;24.55;;;12.60;;
76589;SDS011;65471;55.908;37.880;2023-04-06T00:18:03;23.83;;;13.23;;
76589;SDS011;65471;55.908;37.880;2023-04-06T00:20:30;25.02;;;13.75;;
76589;SDS011;65471;55.908;37.880;2023-04-06T00:22:57;23.17;;;13.02;;
76589;SDS011;65471;55.908;37.880;2023-04-06T00:25:25;21.40;;;12.65;;
76589;SDS011;65471;55.908;37.880;2023-04-06T00:27:52;23.75;;;12.50;;
76589;SDS011;65471;55.908;37.880;2023-04-06T00:30:19;28.08;;;13.43;;
76589;SDS011;65471;55.908;37.880;2023-04-06T00:32:46;27.73;;;13.10;;
76589;SDS011;65471;55.908;37.880;2023-04-06T00:35:13;28.42;;;12.43;;
76589;SDS011;65471;55.908;37.880;2023-04-06T00:37:41;25.10;;;13.27;;
76589;SDS011;65471;55.908;37.880;2023-04-06T00:40:08;27.35;;;14.57;;
76589;SDS011;65471;55.908;37.880;2023-04-06T00:42:36;28.75;;;13.90;;
76589;SDS011;65471;55.908;37.880;2023-04-06T00:45:03;25.48;;;12.70;;
76589;SDS011;65471;55.908;37.880;2023-04-06T00:47:30;42.80;;;13.32;;
76589;SDS011;65471;55.908;37.880;2023-04-06T00:49:57;39.47;;;13.85;;
76589;SDS011;65471;55.908;37.880;2023-04-06T00:52:24;29.23;;;14.63;;
76589;SDS011;65471;55.908;37.880;2023-04-06T00:54:50;27.00;;;13.95;;
76589;SDS011;65471;55.908;37.880;2023-04-06T00:57:17;28.63;;;15.00;;
76589;SDS011;65471;55.908;37.880;2023-04-06T00:59:45;28.55;;;14.80;;
76589;SDS011;65471;55.908;37.880;2023-04-06T01:02:12;31.65;;;15.43;;
76589;SDS011;65471;55.908;37.880;2023-04-06T01:04:39;31.15;;;15.32;;
76589;SDS011;65471;55.908;37.880;2023-04-06T01:07:06;32.58;;;15.23;;
76589;SDS011;65471;55.908;37.880;2023-04-06T01:09:33;27.17;;;15.10;;
76589;SDS011;65471;55.908;37.880;2023-04-06T01:12:00;29.00;;;15.43;;
76589;SDS011;65471;55.908;37.880;2023-04-06T01:14:27;31.67;;;14.95;;
76589;SDS011;65471;55.908;37.880;2023-04-06T01:16:57;33.28;;;14.50;;
76589;SDS011;65471;55.908;37.880;2023-04-06T01:19:26;28.05;;;15.40;;
76589;SDS011;65471;55.908;37.880;2023-04-06T01:21:53;33.15;;;14.90;;
76589;SDS011;65471;55.908;37.880;2023-04-06T01:24:20;29.83;;;15.88;;
76589;SDS011;65471;55.908;37.880;2023-04-06T01:26:48;46.03;;;15.85;;
76589;SDS011;65471;55.908;37.880;2023-04-06T01:29:15;29.75;;;15.27;;
76589;SDS011;65471;55.908;37.880;2023-04-06T01:31:42;27.80;;;14.65;;
76589;SDS011;65471;55.908;37.880;2023-04-06T01:34:09;40.33;;;16.35;;
76589;SDS011;65471;55.908;37.880;2023-04-06T01:36:36;28.23;;;15.68;;
76589;SDS011;65471;55.908;37.880;2023-04-06T01:39:03;30.10;;;14.40;;
76589;SDS011;65471;55.908;37.880;2023-04-06T01:41:30;33.58;;;16.65;;
76589;SDS011;65471;55.908;37.880;2023-04-06T01:43:57;27.00;;;14.73;;
76589;SDS011;65471;55.908;37.880;2023-04-06T01:46:24;31.75;;;16.08;;
76589;SDS011;65471;55.908;37.880;2023-04-06T01:48:51;32.25;;;15.07;;
76589;SDS011;65471;55.908;37.880;2023-04-06T01:51:18;30.63;;;14.88;;
76589;SDS011;65471;55.908;37.880;2023-04-06T01:53:45;36.92;;;14.88;;
76589;SDS011;65471;55.908;37.880;2023-04-06T01:56:12;30.92;;;15.23;;
76589;SDS011;65471;55.908;37.880;2023-04-06T01:58:39;27.30;;;14.32;;
76589;SDS011;65471;55.908;37.880;2023-04-06T02:01:06;27.90;;;14.35;;
76589;SDS011;65471;55.908;37.880;2023-04-06T02:03:33;28.95;;;14.77;;
76589;SDS011;65471;55.908;37.880;2023-04-06T02:06:00;34.65;;;15.95;;
76589;SDS011;65471;55.908;37.880;2023-04-06T02:08:27;32.67;;;14.88;;
76589;SDS011;65471;55.908;37.880;2023-04-06T02:10:54;26.00;;;14.45;;
76589;SDS011;65471;55.908;37.880;2023-04-06T02:13:21;30.27;;;14.40;;
76589;SDS011;65471;55.908;37.880;2023-04-06T02:15:48;28.05;;;14.15;;
76589;SDS011;65471;55.908;37.880;2023-04-06T02:18:14;30.00;;;14.35;;
76589;SDS011;65471;55.908;37.880;2023-04-06T02:20:44;26.90;;;14.13;;
76589;SDS011;65471;55.908;37.880;2023-04-06T02:23:11;24.27;;;13.18;;
76589;SDS011;65471;55.908;37.880;2023-04-06T02:25:38;43.53;;;16.00;;
76589;SDS011;65471;55.908;37.880;2023-04-06T02:28:06;28.40;;;14.35;;
76589;SDS011;65471;55.908;37.880;2023-04-06T02:30:33;29.75;;;14.32;;
76589;SDS011;65471;55.908;37.880;2023-04-06T02:33:01;38.35;;;15.88;;
76589;SDS011;65471;55.908;37.880;2023-04-06T02:35:29;45.53;;;17.00;;
76589;SDS011;65471;55.908;37.880;2023-04-06T02:37:57;31.70;;;15.77;;
76589;SDS011;65471;55.908;37.880;2023-04-06T02:40:24;38.08;;;17.63;;
76589;SDS011;65471;55.908;37.880;2023-04-06T02:42:51;34.50;;;16.33;;
76589;SDS011;65471;55.908;37.880;2023-04-06T02:45:17;29.90;;;15.07;;
76589;SDS011;65471;55.908;37.880;2023-04-06T02:47:44;35.45;;;15.48;;
76589;SDS011;65471;55.908;37.880;2023-04-06T02:50:11;30.27;;;15.65;;
76589;SDS011;65471;55.908;37.880;2023-04-06T02:52:38;28.90;;;14.40;;
76589;SDS011;65471;55.908;37.880;2023-04-06T02:55:05;35.90;;;14.90;;
76589;SDS011;65471;55.908;37.880;2023-04-06T02:57:34;33.45;;;15.10;;
76589;SDS011;65471;55.908;37.880;2023-04-06T03:00:01;37.47;;;14.20;;
76589;SDS011;65471;55.908;37.880;2023-04-06T03:02:28;29.95;;;14.48;;
76589;SDS011;65471;55.908;37.880;2023-04-06T03:04:56;32.53;;;13.68;;
76589;SDS011;65471;55.908;37.880;2023-04-06T03:07:23;30.42;;;14.02;;
76589;SDS011;65471;55.908;37.880;2023-04-06T03:09:49;26.77;;;12.77;;
76589;SDS011;65471;55.908;37.880;2023-04-06T03:12:17;30.38;;;13.13;;
76589;SDS011;65471;55.908;37.880;2023-04-06T03:14:44;26.30;;;13.13;;
76589;SDS011;65471;55.908;37.880;2023-04-06T03:17:11;26.55;;;12.73;;
76589;SDS011;65471;55.908;37.880;2023-04-06T03:19:38;22.20;;;12.63;;
76589;SDS011;65471;55.908;37.880;2023-04-06T03:22:05;29.58;;;13.00;;
76589;SDS011;65471;55.908;37.880;2023-04-06T03:24:32;30.88;;;12.43;;
76589;SDS011;65471;55.908;37.880;2023-04-06T03:26:59;21.30;;;11.60;;
76589;SDS011;65471;55.908;37.880;2023-04-06T03:29:26;18.42;;;11.35;;
76589;SDS011;65471;55.908;37.880;2023-04-06T03:31:53;22.95;;;12.13;;
76589;SDS011;65471;55.908;37.880;2023-04-06T03:34:20;25.42;;;11.50;;
76589;SDS011;65471;55.908;37.880;2023-04-06T03:36:47;21.77;;;10.70;;
76589;SDS011;65471;55.908;37.880;2023-04-06T03:39:28;23.15;;;11.30;;
76589;SDS011;65471;55.908;37.880;2023-04-06T03:41:55;21.02;;;11.10;;
76589;SDS011;65471;55.908;37.880;2023-04-06T03:44:21;38.78;;;11.40;;
76589;SDS011;65471;55.908;37.880;2023-04-06T03:46:48;26.10;;;10.70;;
76589;SDS011;65471;55.908;37.880;2023-04-06T03:49:15;18.95;;;10.93;;
76589;SDS011;65471;55.908;37.880;2023-04-06T03:51:42;19.08;;;11.45;;
76589;SDS011;65471;55.908;37.880;2023-04-06T03:54:21;18.98;;;11.13;;
76589;SDS011;65471;55.908;37.880;2023-04-06T03:56:48;22.75;;;11.23;;
76589;SDS011;65471;55.908;37.880;2023-04-06T03:59:15;19.65;;;10.65;;
76589;SDS011;65471;55.908;37.880;2023-04-06T04:01:42;23.25;;;11.13;;
76589;SDS011;65471;55.908;37.880;2023-04-06T04:04:10;22.50;;;10.43;;
76589;SDS011;65471;55.908;37.880;2023-04-06T04:06:37;26.38;;;11.52;;
76589;SDS011;65471;55.908;37.880;2023-04-06T04:09:04;21.83;;;10.18;;
76589;SDS011;65471;55.908;37.880;2023-04-06T04:11:31;19.55;;;9.32;;
76589;SDS011;65471;55.908;37.880;2023-04-06T04:13:57;21.75;;;10.00;;
76589;SDS011;65471;55.908;37.880;2023-04-06T04:16:24;27.63;;;9.93;;
76589;SDS011;65471;55.908;37.880;2023-04-06T04:18:51;28.10;;;9.68;;
76589;SDS011;65471;55.908;37.880;2023-04-06T04:21:18;20.58;;;9.95;;
76589;SDS011;65471;55.908;37.880;2023-04-06T04:23:45;20.75;;;9.70;;
76589;SDS011;65471;55.908;37.880;2023-04-06T04:26:12;16.30;;;8.73;;
76589;SDS011;65471;55.908;37.880;2023-04-06T04:28:39;13.40;;;8.63;;
76589;SDS011;65471;55.908;37.880;2023-04-06T04:31:06;13.63;;;8.52;;
76589;SDS011;65471;55.908;37.880;2023-04-06T04:33:32;21.33;;;8.48;;
76589;SDS011;65471;55.908;37.880;2023-04-06T04:35:59;28.25;;;8.52;;
76589;SDS011;65471;55.908;37.880;2023-04-06T04:38:26;10.43;;;8.65;;
76589;SDS011;65471;55.908;37.880;2023-04-06T04:40:53;18.17;;;9.68;;
76589;SDS011;65471;55.908;37.880;2023-04-06T04:43:20;22.42;;;9.60;;
76589;SDS011;65471;55.908;37.880;2023-04-06T04:45:47;27.35;;;9.50;;
76589;SDS011;65471;55.908;37.880;2023-04-06T04:48:14;24.45;;;8.10;;
76589;SDS011;65471;55.908;37.880;2023-04-06T04:50:40;23.83;;;8.30;;
76589;SDS011;65471;55.908;37.880;2023-04-06T04:53:07;15.43;;;8.15;;
76589;SDS011;65471;55.908;37.880;2023-04-06T04:55:34;20.80;;;7.30;;
76589;SDS011;65471;55.908;37.880;2023-04-06T04:58:01;19.83;;;8.15;;
76589;SDS011;65471;55.908;37.880;2023-04-06T05:00:28;14.57;;;7.28;;
76589;SDS011;65471;55.908;37.880;2023-04-06T05:02:55;13.05;;;7.75;;
76589;SDS011;65471;55.908;37.880;2023-04-06T05:05:22;24.13;;;7.35;;
76589;SDS011;65471;55.908;37.880;2023-04-06T05:07:49;18.70;;;7.55;;
76589;SDS011;65471;55.908;37.880;2023-04-06T05:10:16;16.85;;;7.55;;
76589;SDS011;65471;55.908;37.880;2023-04-06T05:12:43;15.27;;;7.13;;
76589;SDS011;65471;55.908;37.880;2023-04-06T05:15:10;12.32;;;7.30;;
76589;SDS011;65471;55.908;37.880;2023-04-06T05:17:37;13.45;;;7.45;;
76589;SDS011;65471;55.908;37.880;2023-04-06T05:20:06;19.45;;;6.90;;
76589;SDS011;65471;55.908;37.880;2023-04-06T05:22:33;28.48;;;7.75;;
76589;SDS011;65471;55.908;37.880;2023-04-06T05:25:01;13.43;;;7.57;;
76589;SDS011;65471;55.908;37.880;2023-04-06T05:27:28;23.85;;;7.05;;
76589;SDS011;65471;55.908;37.880;2023-04-06T05:29:56;10.88;;;7.32;;
76589;SDS011;65471;55.908;37.880;2023-04-06T05:32:24;17.63;;;7.28;;
76589;SDS011;65471;55.908;37.880;2023-04-06T05:34:51;17.63;;;7.20;;
76589;SDS011;65471;55.908;37.880;2023-04-06T05:37:18;14.20;;;7.35;;
76589;SDS011;65471;55.908;37.880;2023-04-06T05:39:45;11.52;;;7.38;;
76589;SDS011;65471;55.908;37.880;2023-04-06T05:42:12;29.00;;;7.95;;
76589;SDS011;65471;55.908;37.880;2023-04-06T05:44:39;21.38;;;7.25;;
76589;SDS011;65471;55.908;37.880;2023-04-06T05:47:06;14.40;;;7.15;;
76589;SDS011;65471;55.908;37.880;2023-04-06T05:49:33;23.65;;;7.72;;
76589;SDS011;65471;55.908;37.880;2023-04-06T05:52:01;14.48;;;6.82;;
76589;SDS011;65471;55.908;37.880;2023-04-06T05:54:28;19.90;;;7.75;;
76589;SDS011;65471;55.908;37.880;2023-04-06T05:56:55;19.48;;;6.90;;
76589;SDS011;65471;55.908;37.880;2023-04-06T05:59:22;7.78;;;6.47;;
76589;SDS011;65471;55.908;37.880;2023-04-06T06:01:50;18.47;;;7.43;;
76589;SDS011;65471;55.908;37.880;2023-04-06T06:04:17;9.80;;;6.88;;
76589;SDS011;65471;55.908;37.880;2023-04-06T06:06:44;10.30;;;6.85;;
76589;SDS011;65471;55.908;37.880;2023-04-06T06:09:11;11.68;;;7.00;;
76589;SDS011;65471;55.908;37.880;2023-04-06T06:11:38;9.05;;;6.38;;
76589;SDS011;65471;55.908;37.880;2023-04-06T06:14:05;11.65;;;7.00;;
76589;SDS011;65471;55.908;37.880;2023-04-06T06:16:32;16.15;;;7.75;;
76589;SDS011;65471;55.908;37.880;2023-04-06T06:18:59;17.42;;;6.57;;
76589;SDS011;65471;55.908;37.880;2023-04-06T06:21:26;11.85;;;6.63;;
76589;SDS011;65471;55.908;37.880;2023-04-06T06:23:53;17.65;;;7.00;;
76589;SDS011;65471;55.908;37.880;2023-04-06T06:26:21;27.10;;;6.53;;
76589;SDS011;65471;55.908;37.880;2023-04-06T06:28:48;17.70;;;6.55;;
76589;SDS011;65471;55.908;37.880;2023-04-06T06:31:15;9.52;;;6.80;;
76589;SDS011;65471;55.908;37.880;2023-04-06T06:33:42;12.35;;;7.25;;
76589;SDS011;65471;55.908;37.880;2023-04-06T06:36:09;10.05;;;6.15;;
76589;SDS011;65471;55.908;37.880;2023-04-06T06:38:36;13.60;;;6.50;;
76589;SDS011;65471;55.908;37.880;2023-04-06T06:41:04;15.57;;;6.57;;
76589;SDS011;65471;55.908;37.880;2023-04-06T06:43:31;12.32;;;6.20;;
76589;SDS011;65471;55.908;37.880;2023-04-06T06:45:58;16.38;;;6.22;;
76589;SDS011;65471;55.908;37.880;2023-04-06T06:48:25;16.77;;;6.05;;
76589;SDS011;65471;55.908;37.880;2023-04-06T06:50:52;6.50;;;5.90;;
76589;SDS011;65471;55.908;37.880;2023-04-06T06:53:19;6.60;;;5.55;;
76589;SDS011;65471;55.908;37.880;2023-04-06T06:55:46;13.40;;;6.63;;
76589;SDS011;65471;55.908;37.880;2023-04-06T06:58:15;9.55;;;6.35;;
76589;SDS011;65471;55.908;37.880;2023-04-06T07:00:44;15.30;;;6.15;;
76589;SDS011;65471;55.908;37.880;2023-04-06T07:03:11;8.85;;;6.03;;
76589;SDS011;65471;55.908;37.880;2023-04-06T07:05:38;14.40;;;5.63;;
76589;SDS011;65471;55.908;37.880;2023-04-06T07:08:06;20.83;;;6.60;;
76589;SDS011;65471;55.908;37.880;2023-04-06T07:10:33;20.60;;;6.10;;
76589;SDS011;65471;55.908;37.880;2023-04-06T07:13:01;6.18;;;4.97;;
76589;SDS011;65471;55.908;37.880;2023-04-06T07:15:28;17.40;;;5.55;;
76589;SDS011;65471;55.908;37.880;2023-04-06T07:17:55;7.30;;;5.55;;
76589;SDS011;65471;55.908;37.880;2023-04-06T07:20:22;16.75;;;5.50;;
76589;SDS011;65471;55.908;37.880;2023-04-06T07:22:49;9.35;;;4.95;;
76589;SDS011;65471;55.908;37.880;2023-04-06T07:25:15;9.38;;;5.43;;
76589;SDS011;65471;55.908;37.880;2023-04-06T07:27:42;16.75;;;7.53;;
76589;SDS011;65471;55.908;37.880;2023-04-06T07:30:09;22.17;;;7.63;;
76589;SDS011;65471;55.908;37.880;2023-04-06T07:32:37;30.08;;;9.60;;
76589;SDS011;65471;55.908;37.880;2023-04-06T07:35:04;36.50;;;12.30;;
76589;SDS011;65471;55.908;37.880;2023-04-06T07:37:31;19.88;;;7.07;;
76589;SDS011;65471;55.908;37.880;2023-04-06T07:39:58;49.08;;;12.55;;
76589;SDS011;65471;55.908;37.880;2023-04-06T07:42:25;28.08;;;7.25;;
76589;SDS011;65471;55.908;37.880;2023-04-06T07:44:51;31.27;;;8.30;;
76589;SDS011;65471;55.908;37.880;2023-04-06T07:47:18;22.73;;;8.23;;
76589;SDS011;65471;55.908;37.880;2023-04-06T07:49:45;16.45;;;7.50;;
76589;SDS011;65471;55.908;37.880;2023-04-06T07:52:12;30.52;;;11.38;;
76589;SDS011;65471;55.908;37.880;2023-04-06T07:54:40;46.85;;;11.30;;
76589;SDS011;65471;55.908;37.880;2023-04-06T07:57:07;53.88;;;14.23;;
76589;SDS011;65471;55.908;37.880;2023-04-06T07:59:34;48.25;;;13.90;;
76589;SDS011;65471;55.908;37.880;2023-04-06T08:02:01;45.83;;;13.88;;
76589;SDS011;65471;55.908;37.880;2023-04-06T08:04:28;112.65;;;28.35;;
76589;SDS011;65471;55.908;37.880;2023-04-06T08:06:55;63.90;;;16.10;;
76589;SDS011;65471;55.908;37.880;2023-04-06T08:09:22;68.65;;;15.52;;
76589;SDS011;65471;55.908;37.880;2023-04-06T08:11:49;55.72;;;13.20;;
76589;SDS011;65471;55.908;37.880;2023-04-06T08:14:16;28.70;;;5.60;;
76589;SDS011;65471;55.908;37.880;2023-04-06T08:16:43;36.42;;;10.32;;
76589;SDS011;65471;55.908;37.880;2023-04-06T08:19:10;19.00;;;5.60;;
76589;SDS011;65471;55.908;37.880;2023-04-06T08:21:37;17.70;;;6.13;;
76589;SDS011;65471;55.908;37.880;2023-04-06T08:24:04;22.48;;;5.82;;
76589;SDS011;65471;55.908;37.880;2023-04-06T08:26:32;46.17;;;11.13;;
76589;SDS011;65471;55.908;37.880;2023-04-06T08:28:59;30.83;;;9.40;;
76589;SDS011;65471;55.908;37.880;2023-04-06T08:31:26;56.10;;;15.38;;
76589;SDS011;65471;55.908;37.880;2023-04-06T08:33:53;49.15;;;11.45;;
76589;SDS011;65471;55.908;37.880;2023-04-06T08:36:20;21.15;;;6.50;;
76589;SDS011;65471;55.908;37.880;2023-04-06T08:38:49;33.42;;;6.45;;
76589;SDS011;65471;55.908;37.880;2023-04-06T08:41:17;28.23;;;6.13;;
76589;SDS011;65471;55.908;37.880;2023-04-06T08:46:11;49.00;;;13.13;;
76589;SDS011;65471;55.908;37.880;2023-04-06T08:48:38;41.28;;;8.68;;
76589;SDS011;65471;55.908;37.880;2023-04-06T08:51:06;41.17;;;8.38;;
76589;SDS011;65471;55.908;37.880;2023-04-06T08:53:34;56.33;;;11.32;;
76589;SDS011;65471;55.908;37.880;2023-04-06T08:56:02;39.05;;;7.65;;
76589;SDS011;65471;55.908;37.880;2023-04-06T08:58:34;34.20;;;6.73;;
76589;SDS011;65471;55.908;37.880;2023-04-06T09:01:08;12.20;;;6.15;;
76589;SDS011;65471;55.908;37.880;2023-04-06T09:03:38;32.03;;;9.38;;
76589;SDS011;65471;55.908;37.880;2023-04-06T09:06:07;48.53;;;13.30;;
76589;SDS011;65471;55.908;37.880;2023-04-06T09:08:35;80.35;;;18.60;;
76589;SDS011;65471;55.908;37.880;2023-04-06T09:11:04;51.58;;;11.77;;
76589;SDS011;65471;55.908;37.880;2023-04-06T09:13:32;70.57;;;14.07;;
76589;SDS011;65471;55.908;37.880;2023-04-06T09:16:11;24.70;;;6.75;;
76589;SDS011;65471;55.908;37.880;2023-04-06T09:18:38;16.65;;;5.60;;
76589;SDS011;65471;55.908;37.880;2023-04-06T09:21:06;19.52;;;5.22;;
76589;SDS011;65471;55.908;37.880;2023-04-06T09:23:34;28.38;;;5.20;;
76589;SDS011;65471;55.908;37.880;2023-04-06T09:28:52;47.13;;;11.88;;
76589;SDS011;65471;55.908;37.880;2023-04-06T09:31:22;51.00;;;13.13;;
76589;SDS011;65471;55.908;37.880;2023-04-06T09:33:53;25.42;;;7.75;;
76589;SDS011;65471;55.908;37.880;2023-04-06T09:36:29;48.47;;;8.38;;
76589;SDS011;65471;55.908;37.880;2023-04-06T09:39:01;57.42;;;12.48;;
76589;SDS011;65471;55.908;37.880;2023-04-06T09:41:30;34.45;;;8.48;;
76589;SDS011;65471;55.908;37.880;2023-04-06T09:44:09;63.85;;;12.23;;
76589;SDS011;65471;55.908;37.880;2023-04-06T09:46:41;10.55;;;5.28;;
76589;SDS011;65471;55.908;37.880;2023-04-06T09:49:28;22.05;;;5.72;;
76589;SDS011;65471;55.908;37.880;2023-04-06T09:52:03;56.50;;;12.50;;
76589;SDS011;65471;55.908;37.880;2023-04-06T09:54:34;74.30;;;20.60;;
76589;SDS011;65471;55.908;37.880;2023-04-06T09:57:22;114.93;;;28.55;;
76589;SDS011;65471;55.908;37.880;2023-04-06T10:00:07;44.70;;;11.77;;
76589;SDS011;65471;55.908;37.880;2023-04-06T10:08:05;38.67;;;9.23;;
76589;SDS011;65471;55.908;37.880;2023-04-06T10:10:33;24.55;;;7.70;;
76589;SDS011;65471;55.908;37.880;2023-04-06T10:13:00;22.17;;;6.07;;
76589;SDS011;65471;55.908;37.880;2023-04-06T10:15:28;17.27;;;6.47;;
76589;SDS011;65471;55.908;37.880;2023-04-06T10:17:59;27.77;;;9.32;;
76589;SDS011;65471;55.908;37.880;2023-04-06T10:20:29;12.63;;;4.80;;
76589;SDS011;65471;55.908;37.880;2023-04-06T10:23:29;29.50;;;6.40;;
76589;SDS011;65471;55.908;37.880;2023-04-06T10:26:00;26.58;;;5.93;;
76589;SDS011;65471;55.908;37.880;2023-04-06T10:28:32;23.15;;;5.90;;
76589;SDS011;65471;55.908;37.880;2023-04-06T10:31:05;18.23;;;5.72;;
76589;SDS011;65471;55.908;37.880;2023-04-06T10:33:33;16.42;;;5.90;;
76589;SDS011;65471;55.908;37.880;2023-04-06T10:36:10;13.15;;;4.30;;
76589;SDS011;65471;55.908;37.880;2023-04-06T10:38:41;15.02;;;5.15;;
76589;SDS011;65471;55.908;37.880;2023-04-06T10:41:09;26.00;;;4.85;;
76589;SDS011;65471;55.908;37.880;2023-04-06T10:43:39;19.65;;;5.07;;
76589;SDS011;65471;55.908;37.880;2023-04-06T10:46:08;40.90;;;8.88;;
76589;SDS011;65471;55.908;37.880;2023-04-06T10:48:37;23.02;;;6.50;;
76589;SDS011;65471;55.908;37.880;2023-04-06T10:51:07;13.55;;;5.97;;
76589;SDS011;65471;55.908;37.880;2023-04-06T10:53:43;19.80;;;7.28;;
76589;SDS011;65471;55.908;37.880;2023-04-06T10:56:12;22.70;;;5.35;;
76589;SDS011;65471;55.908;37.880;2023-04-06T10:58:44;13.82;;;5.30;;
76589;SDS011;65471;55.908;37.880;2023-04-06T11:01:15;16.73;;;4.75;;
76589;SDS011;65471;55.908;37.880;2023-04-06T11:03:47;14.18;;;5.15;;
76589;SDS011;65471;55.908;37.880;2023-04-06T11:06:22;35.08;;;4.78;;
76589;SDS011;65471;55.908;37.880;2023-04-06T11:08:50;20.95;;;5.57;;
76589;SDS011;65471;55.908;37.880;2023-04-06T11:11:19;15.10;;;4.57;;
76589;SDS011;65471;55.908;37.880;2023-04-06T11:13:50;16.02;;;5.20;;
76589;SDS011;65471;55.908;37.880;2023-04-06T11:18:53;34.47;;;6.90;;
76589;SDS011;65471;55.908;37.880;2023-04-06T11:24:21;9.98;;;4.38;;
76589;SDS011;65471;55.908;37.880;2023-04-06T11:26:51;11.68;;;4.30;;
76589;SDS011;65471;55.908;37.880;2023-04-06T11:29:22;46.95;;;19.13;;
76589;SDS011;65471;55.908;37.880;2023-04-06T11:31:52;21.80;;;7.90;;
76589;SDS011;65471;55.908;37.880;2023-04-06T11:34:24;53.35;;;13.85;;
76589;SDS011;65471;55.908;37.880;2023-04-06T11:36:59;21.33;;;5.88;;
76589;SDS011;65471;55.908;37.880;2023-04-06T11:39:28;17.33;;;5.13;;
76589;SDS011;65471;55.908;37.880;2023-04-06T11:42:00;41.00;;;10.50;;
76589;SDS011;65471;55.908;37.880;2023-04-06T11:44:38;11.88;;;4.70;;
76589;SDS011;65471;55.908;37.880;2023-04-06T11:47:07;23.80;;;5.95;;
76589;SDS011;65471;55.908;37.880;2023-04-06T11:49:36;7.88;;;4.18;;
76589;SDS011;65471;55.908;37.880;2023-04-06T11:52:14;18.48;;;4.20;;
76589;SDS011;65471;55.908;37.880;2023-04-06T11:54:44;14.77;;;4.57;;
76589;SDS011;65471;55.908;37.880;2023-04-06T11:57:12;19.60;;;5.28;;
76589;SDS011;65471;55.908;37.880;2023-04-06T11:59:39;16.75;;;5.45;;
76589;SDS011;65471;55.908;37.880;2023-04-06T12:02:06;19.88;;;4.60;;
76589;SDS011;65471;55.908;37.880;2023-04-06T12:04:33;8.32;;;3.88;;
76589;SDS011;65471;55.908;37.880;2023-04-06T12:07:01;8.38;;;4.18;;
76589;SDS011;65471;55.908;37.880;2023-04-06T12:09:28;7.70;;;4.15;;
76589;SDS011;65471;55.908;37.880;2023-04-06T12:11:56;11.88;;;3.70;;
76589;SDS011;65471;55.908;37.880;2023-04-06T12:14:23;13.32;;;3.95;;
76589;SDS011;65471;55.908;37.880;2023-04-06T12:16:50;14.98;;;4.05;;
76589;SDS011;65471;55.908;37.880;2023-04-06T12:19:37;19.40;;;4.15;;
76589;SDS011;65471;55.908;37.880;2023-04-06T12:22:04;34.60;;;5.05;;
76589;SDS011;65471;55.908;37.880;2023-04-06T12:24:31;23.38;;;4.28;;
76589;SDS011;65471;55.908;37.880;2023-04-06T12:26:58;19.40;;;4.07;;
76589;SDS011;65471;55.908;37.880;2023-04-06T12:29:35;9.35;;;3.60;;
76589;SDS011;65471;55.908;37.880;2023-04-06T12:32:02;21.30;;;3.75;;
76589;SDS011;65471;55.908;37.880;2023-04-06T12:34:29;25.92;;;4.22;;
76589;SDS011;65471;55.908;37.880;2023-04-06T12:36:56;16.52;;;4.03;;
76589;SDS011;65471;55.908;37.880;2023-04-06T12:39:23;11.77;;;3.97;;
76589;SDS011;65471;55.908;37.880;2023-04-06T12:41:52;8.70;;;3.67;;
76589;SDS011;65471;55.908;37.880;2023-04-06T12:44:19;17.15;;;4.43;;
76589;SDS011;65471;55.908;37.880;2023-04-06T12:46:46;10.27;;;3.97;;
76589;SDS011;65471;55.908;37.880;2023-04-06T12:49:13;12.40;;;3.70;;
76589;SDS011;65471;55.908;37.880;2023-04-06T12:51:39;7.72;;;3.30;;
76589;SDS011;65471;55.908;37.880;2023-04-06T12:54:06;14.85;;;3.28;;
76589;SDS011;65471;55.908;37.880;2023-04-06T12:56:33;14.25;;;3.67;;
76589;SDS011;65471;55.908;37.880;2023-04-06T12:59:00;13.10;;;4.32;;
76589;SDS011;65471;55.908;37.880;2023-04-06T13:01:27;10.00;;;2.92;;
76589;SDS011;65471;55.908;37.880;2023-04-06T13:03:55;13.30;;;3.25;;
76589;SDS011;65471;55.908;37.880;2023-04-06T13:06:23;8.82;;;4.00;;
76589;SDS011;65471;55.908;37.880;2023-04-06T13:08:54;4.22;;;3.08;;
76589;SDS011;65471;55.908;37.880;2023-04-06T13:11:21;12.93;;;2.47;;
76589;SDS011;65471;55.908;37.880;2023-04-06T13:13:53;17.77;;;3.40;;
76589;SDS011;65471;55.908;37.880;2023-04-06T13:16:20;11.00;;;2.58;;
76589;SDS011;65471;55.908;37.880;2023-04-06T13:18:47;12.65;;;2.67;;
76589;SDS011;65471;55.908;37.880;2023-04-06T13:21:16;6.22;;;2.72;;
76589;SDS011;65471;55.908;37.880;2023-04-06T13:26:10;7.28;;;2.80;;
76589;SDS011;65471;55.908;37.880;2023-04-06T13:28:39;7.50;;;3.22;;
76589;SDS011;65471;55.908;37.880;2023-04-06T13:31:07;13.65;;;2.75;;
76589;SDS011;65471;55.908;37.880;2023-04-06T13:33:36;13.00;;;3.50;;
76589;SDS011;65471;55.908;37.880;2023-04-06T13:36:03;6.85;;;3.72;;
76589;SDS011;65471;55.908;37.880;2023-04-06T13:38:30;14.45;;;2.90;;
76589;SDS011;65471;55.908;37.880;2023-04-06T13:40:58;13.02;;;2.70;;
76589;SDS011;65471;55.908;37.880;2023-04-06T13:43:25;4.72;;;2.40;;
76589;SDS011;65471;55.908;37.880;2023-04-06T13:45:54;7.57;;;2.83;;
76589;SDS011;65471;55.908;37.880;2023-04-06T13:48:22;5.82;;;2.65;;
76589;SDS011;65471;55.908;37.880;2023-04-06T13:50:49;11.65;;;3.00;;
76589;SDS011;65471;55.908;37.880;2023-04-06T13:53:16;10.77;;;3.33;;
76589;SDS011;65471;55.908;37.880;2023-04-06T13:55:43;5.82;;;3.28;;
76589;SDS011;65471;55.908;37.880;2023-04-06T13:58:11;19.98;;;3.40;;
76589;SDS011;65471;55.908;37.880;2023-04-06T14:00:38;45.45;;;3.90;;
76589;SDS011;65471;55.908;37.880;2023-04-06T14:03:05;17.30;;;4.22;;
76589;SDS011;65471;55.908;37.880;2023-04-06T14:05:32;11.70;;;3.30;;
76589;SDS011;65471;55.908;37.880;2023-04-06T14:08:00;17.70;;;3.55;;
76589;SDS011;65471;55.908;37.880;2023-04-06T14:10:27;8.35;;;3.30;;
76589;SDS011;65471;55.908;37.880;2023-04-06T14:12:54;16.63;;;4.53;;
76589;SDS011;65471;55.908;37.880;2023-04-06T14:15:22;18.33;;;5.20;;
76589;SDS011;65471;55.908;37.880;2023-04-06T14:17:50;29.05;;;4.93;;
76589;SDS011;65471;55.908;37.880;2023-04-06T14:20:18;10.32;;;5.00;;
76589;SDS011;65471;55.908;37.880;2023-04-06T14:22:45;8.68;;;3.63;;
76589;SDS011;65471;55.908;37.880;2023-04-06T14:25:13;5.45;;;3.53;;
76589;SDS011;65471;55.908;37.880;2023-04-06T14:27:40;25.45;;;3.97;;
76589;SDS011;65471;55.908;37.880;2023-04-06T14:30:07;26.80;;;4.57;;
76589;SDS011;65471;55.908;37.880;2023-04-06T14:32:34;4.22;;;3.13;;
76589;SDS011;65471;55.908;37.880;2023-04-06T14:35:06;10.20;;;3.25;;
76589;SDS011;65471;55.908;37.880;2023-04-06T14:37:33;12.25;;;3.20;;
76589;SDS011;65471;55.908;37.880;2023-04-06T14:40:00;21.25;;;3.42;;
76589;SDS011;65471;55.908;37.880;2023-04-06T14:42:29;4.32;;;2.60;;